Fort Recovery, OH (45846)

4:20 PM EST on December 28, 2014 (GMT -0500)
Eldora Speedway | Change Station
CLOSE
Current Station
Personal Weather Station
Location: New Weston, OH
Elevation: 1027 ft
Nearby Weather Stations

Elev 1027 ft 40.32 °N, 84.64 °W | Updated 57 seconds ago

Mostly Cloudy
Mostly Cloudy
34.2 °F
Feels Like 28 °F
N
7.0
Wind Variable Wind from WNW
Gusts 9.0 mph

Today
High -- | Low -- °F
--% Chance of Precip.
Yesterday
High -- | Low -- °F
Precip. -- in
8:01 AM 5:19 PM
Waxing Crescent, 51% visible
Pressure 30.14 in
Visibility 10.0 miles
Clouds Scattered Clouds 1800 ft
Mostly Cloudy 2600 ft
Windchill 28 °F
Dew Point 30 °F
Humidity 83%
Rainfall 0.02 in
Snow Depth Not available.
UV 0 out of 12
Pollen .10 out of 12
Air Quality Not available.
Flu Activity Not available.
METAR KVES 282055Z AUTO 31006KT 10SM SCT018 BKN026 01/00 A3014 RMK AO2

More Conditions Fewer Conditions

Pressure 30.14 in
Visibility 10.0 miles
Clouds Scattered Clouds 1800 ft
Mostly Cloudy 2600 ft
Windchill 28 °F
Dew Point 30 °F
Humidity 83%
Rainfall 0.02 in
Snow Depth Not available.
UV 0 out of 12
Pollen .10 out of 12
Air Quality Not available.
Flu Activity Not available.
METAR KVES 282055Z AUTO 31006KT 10SM SCT018 BKN026 01/00 A3014 RMK AO2

More Conditions Fewer Conditions

10-Day Weather Forecast

Almanac

Astronomy

Dec. 28, 2014 Rise Set
Actual Time
Civil Twilight
Nautical Twilight
Astronomical Twilight
Moon
Length of Visible Light
Length of Day
Tomorrow will be .
, % of the Moon is Illuminated

Today's Extremes

State Highs State Lows

Community

WunderPhotos

Upload Photos

1,781,431 photos uploaded!

WunderBlogs® & News

Nearby

Air Quality

  Air Quality AQ Index Pollutant
Not available.

Snow Depth

Station Depth Elevation

Earthquake Activity

City Distance Mag. Time & Date
Minimum magnitude displayed is 2.5.

Coastal Water Temperatures

Place Temperature

Nearby Weather Stations